sensor_id;sensor_type;location;lat;lon;timestamp;P1;durP1;ratioP1;P2;durP2;ratioP2
69485;SDS011;56677;51.710;5.366;2024-02-04T06:09:48;7.40;;;2.75;;
69485;SDS011;56677;51.710;5.366;2024-02-04T06:12:13;6.53;;;2.40;;
69485;SDS011;56677;51.710;5.366;2024-02-04T06:14:38;4.55;;;2.00;;
69485;SDS011;56677;51.710;5.366;2024-02-04T06:17:03;4.93;;;2.10;;
69485;SDS011;56677;51.710;5.366;2024-02-04T06:19:28;6.68;;;2.10;;
69485;SDS011;56677;51.710;5.366;2024-02-04T06:21:53;4.72;;;1.90;;
69485;SDS011;56677;51.710;5.366;2024-02-04T06:24:18;5.68;;;2.10;;
69485;SDS011;56677;51.710;5.366;2024-02-04T06:26:43;5.53;;;2.00;;
69485;SDS011;56677;51.710;5.366;2024-02-04T06:29:09;6.97;;;2.47;;
69485;SDS011;56677;51.710;5.366;2024-02-04T06:31:34;5.03;;;2.40;;
69485;SDS011;56677;51.710;5.366;2024-02-04T06:33:59;5.20;;;2.00;;
69485;SDS011;56677;51.710;5.366;2024-02-04T06:36:24;6.00;;;2.35;;
69485;SDS011;56677;51.710;5.366;2024-02-04T06:38:49;6.28;;;2.30;;
69485;SDS011;56677;51.710;5.366;2024-02-04T06:41:14;7.10;;;2.40;;
69485;SDS011;56677;51.710;5.366;2024-02-04T06:43:39;6.38;;;2.20;;
69485;SDS011;56677;51.710;5.366;2024-02-04T06:46:05;8.37;;;2.70;;
69485;SDS011;56677;51.710;5.366;2024-02-04T06:48:30;6.80;;;2.28;;
69485;SDS011;56677;51.710;5.366;2024-02-04T06:50:55;8.50;;;2.65;;
69485;SDS011;56677;51.710;5.366;2024-02-04T06:53:20;9.48;;;2.78;;
69485;SDS011;56677;51.710;5.366;2024-02-04T06:55:45;7.70;;;2.00;;
69485;SDS011;56677;51.710;5.366;2024-02-04T06:58:10;8.37;;;2.10;;
69485;SDS011;56677;51.710;5.366;2024-02-04T07:00:35;9.30;;;2.42;;
69485;SDS011;56677;51.710;5.366;2024-02-04T07:03:00;7.35;;;2.40;;
69485;SDS011;56677;51.710;5.366;2024-02-04T07:05:25;9.50;;;2.50;;
69485;SDS011;56677;51.710;5.366;2024-02-04T07:07:51;7.60;;;2.65;;
69485;SDS011;56677;51.710;5.366;2024-02-04T07:10:16;7.82;;;2.58;;
69485;SDS011;56677;51.710;5.366;2024-02-04T07:12:41;5.80;;;2.23;;
69485;SDS011;56677;51.710;5.366;2024-02-04T07:15:06;5.77;;;1.97;;
69485;SDS011;56677;51.710;5.366;2024-02-04T07:17:32;5.87;;;1.80;;
69485;SDS011;56677;51.710;5.366;2024-02-04T07:19:57;7.38;;;2.28;;
69485;SDS011;56677;51.710;5.366;2024-02-04T07:22:22;5.13;;;1.88;;
69485;SDS011;56677;51.710;5.366;2024-02-04T07:24:47;6.85;;;1.83;;
69485;SDS011;56677;51.710;5.366;2024-02-04T07:27:12;5.03;;;2.10;;
69485;SDS011;56677;51.710;5.366;2024-02-04T07:29:37;10.40;;;2.10;;
69485;SDS011;56677;51.710;5.366;2024-02-04T07:32:02;7.22;;;2.05;;
69485;SDS011;56677;51.710;5.366;2024-02-04T07:34:28;5.90;;;2.10;;
69485;SDS011;56677;51.710;5.366;2024-02-04T07:36:53;6.20;;;1.92;;
69485;SDS011;56677;51.710;5.366;2024-02-04T07:39:18;6.15;;;1.42;;
69485;SDS011;56677;51.710;5.366;2024-02-04T07:41:43;6.75;;;2.20;;
69485;SDS011;56677;51.710;5.366;2024-02-04T07:44:08;9.07;;;2.20;;
69485;SDS011;56677;51.710;5.366;2024-02-04T07:46:33;5.03;;;1.55;;
69485;SDS011;56677;51.710;5.366;2024-02-04T07:48:58;5.17;;;1.83;;
69485;SDS011;56677;51.710;5.366;2024-02-04T07:51:24;5.50;;;1.80;;
69485;SDS011;56677;51.710;5.366;2024-02-04T07:53:49;9.00;;;1.95;;
69485;SDS011;56677;51.710;5.366;2024-02-04T07:56:14;5.03;;;2.10;;
69485;SDS011;56677;51.710;5.366;2024-02-04T07:58:39;7.88;;;1.65;;
69485;SDS011;56677;51.710;5.366;2024-02-04T08:01:04;5.13;;;2.10;;
69485;SDS011;56677;51.710;5.366;2024-02-04T08:03:29;7.65;;;2.15;;
69485;SDS011;56677;51.710;5.366;2024-02-04T08:05:54;7.60;;;2.07;;
69485;SDS011;56677;51.710;5.366;2024-02-04T08:08:20;4.63;;;2.00;;
69485;SDS011;56677;51.710;5.366;2024-02-04T08:10:45;6.20;;;1.40;;
69485;SDS011;56677;51.710;5.366;2024-02-04T08:13:10;3.88;;;1.73;;
69485;SDS011;56677;51.710;5.366;2024-02-04T08:15:35;6.25;;;1.70;;
69485;SDS011;56677;51.710;5.366;2024-02-04T08:18:00;6.43;;;2.20;;
69485;SDS011;56677;51.710;5.366;2024-02-04T08:20:25;7.88;;;2.00;;
69485;SDS011;56677;51.710;5.366;2024-02-04T08:22:51;3.77;;;1.73;;
69485;SDS011;56677;51.710;5.366;2024-02-04T08:25:16;4.68;;;1.80;;
69485;SDS011;56677;51.710;5.366;2024-02-04T08:27:41;5.35;;;2.00;;
69485;SDS011;56677;51.710;5.366;2024-02-04T08:30:06;4.37;;;2.10;;
69485;SDS011;56677;51.710;5.366;2024-02-04T08:32:32;4.07;;;1.83;;
69485;SDS011;56677;51.710;5.366;2024-02-04T08:34:57;4.25;;;1.67;;
69485;SDS011;56677;51.710;5.366;2024-02-04T08:37:22;3.72;;;1.88;;
69485;SDS011;56677;51.710;5.366;2024-02-04T08:39:47;8.10;;;1.97;;
69485;SDS011;56677;51.710;5.366;2024-02-04T08:42:12;4.85;;;1.67;;
69485;SDS011;56677;51.710;5.366;2024-02-04T08:44:37;4.57;;;1.53;;
69485;SDS011;56677;51.710;5.366;2024-02-04T08:47:03;3.38;;;1.65;;
69485;SDS011;56677;51.710;5.366;2024-02-04T08:49:29;4.47;;;1.77;;
69485;SDS011;56677;51.710;5.366;2024-02-04T08:51:54;4.40;;;1.65;;
69485;SDS011;56677;51.710;5.366;2024-02-04T08:54:19;4.83;;;1.70;;
69485;SDS011;56677;51.710;5.366;2024-02-04T08:56:44;4.30;;;1.63;;
69485;SDS011;56677;51.710;5.366;2024-02-04T08:59:09;5.03;;;1.77;;
69485;SDS011;56677;51.710;5.366;2024-02-04T09:01:34;4.07;;;1.92;;
69485;SDS011;56677;51.710;5.366;2024-02-04T09:03:59;3.40;;;1.80;;
69485;SDS011;56677;51.710;5.366;2024-02-04T09:06:25;5.13;;;1.95;;
69485;SDS011;56677;51.710;5.366;2024-02-04T09:08:50;4.72;;;1.88;;
69485;SDS011;56677;51.710;5.366;2024-02-04T09:11:15;5.83;;;2.30;;
69485;SDS011;56677;51.710;5.366;2024-02-04T09:13:40;5.13;;;1.90;;
69485;SDS011;56677;51.710;5.366;2024-02-04T09:16:05;5.47;;;2.10;;
69485;SDS011;56677;51.710;5.366;2024-02-04T09:18:30;4.30;;;1.77;;
69485;SDS011;56677;51.710;5.366;2024-02-04T09:20:56;5.80;;;2.00;;
69485;SDS011;56677;51.710;5.366;2024-02-04T09:23:21;5.25;;;1.88;;
69485;SDS011;56677;51.710;5.366;2024-02-04T09:25:46;5.65;;;1.85;;
69485;SDS011;56677;51.710;5.366;2024-02-04T09:28:11;3.13;;;1.70;;
69485;SDS011;56677;51.710;5.366;2024-02-04T09:30:36;3.80;;;1.40;;
69485;SDS011;56677;51.710;5.366;2024-02-04T09:33:01;4.33;;;1.53;;
69485;SDS011;56677;51.710;5.366;2024-02-04T09:35:26;3.97;;;1.40;;
69485;SDS011;56677;51.710;5.366;2024-02-04T09:37:52;4.10;;;2.00;;
69485;SDS011;56677;51.710;5.366;2024-02-04T09:40:17;2.83;;;1.10;;
69485;SDS011;56677;51.710;5.366;2024-02-04T09:42:42;2.93;;;1.50;;
69485;SDS011;56677;51.710;5.366;2024-02-04T09:45:07;3.35;;;1.40;;
69485;SDS011;56677;51.710;5.366;2024-02-04T09:47:32;5.20;;;1.80;;
69485;SDS011;56677;51.710;5.366;2024-02-04T09:49:59;3.35;;;1.38;;
69485;SDS011;56677;51.710;5.366;2024-02-04T09:52:27;4.18;;;1.70;;
69485;SDS011;56677;51.710;5.366;2024-02-04T09:54:55;5.22;;;1.65;;
69485;SDS011;56677;51.710;5.366;2024-02-04T09:57:22;5.35;;;1.50;;
69485;SDS011;56677;51.710;5.366;2024-02-04T09:59:47;2.90;;;1.40;;
69485;SDS011;56677;51.710;5.366;2024-02-04T10:02:12;3.67;;;1.20;;
69485;SDS011;56677;51.710;5.366;2024-02-04T10:04:37;2.20;;;1.20;;
69485;SDS011;56677;51.710;5.366;2024-02-04T10:07:03;3.15;;;1.17;;
69485;SDS011;56677;51.710;5.366;2024-02-04T10:09:28;3.47;;;1.30;;
69485;SDS011;56677;51.710;5.366;2024-02-04T10:11:53;2.37;;;1.40;;
69485;SDS011;56677;51.710;5.366;2024-02-04T10:14:18;3.17;;;1.38;;
69485;SDS011;56677;51.710;5.366;2024-02-04T10:16:43;1.83;;;1.30;;
69485;SDS011;56677;51.710;5.366;2024-02-04T10:19:08;5.00;;;1.50;;
69485;SDS011;56677;51.710;5.366;2024-02-04T10:21:34;3.40;;;1.27;;
69485;SDS011;56677;51.710;5.366;2024-02-04T10:23:59;5.43;;;1.65;;
69485;SDS011;56677;51.710;5.366;2024-02-04T10:26:27;2.30;;;1.27;;
69485;SDS011;56677;51.710;5.366;2024-02-04T10:28:53;2.65;;;1.42;;
69485;SDS011;56677;51.710;5.366;2024-02-04T10:31:18;4.00;;;1.50;;
69485;SDS011;56677;51.710;5.366;2024-02-04T10:33:43;4.57;;;1.50;;
69485;SDS011;56677;51.710;5.366;2024-02-04T10:36:08;3.58;;;1.20;;
69485;SDS011;56677;51.710;5.366;2024-02-04T10:38:33;6.25;;;1.60;;
69485;SDS011;56677;51.710;5.366;2024-02-04T10:40:59;6.63;;;1.57;;
69485;SDS011;56677;51.710;5.366;2024-02-04T10:43:24;3.85;;;1.67;;
69485;SDS011;56677;51.710;5.366;2024-02-04T10:45:55;2.45;;;1.08;;
69485;SDS011;56677;51.710;5.366;2024-02-04T10:48:21;5.03;;;1.35;;
69485;SDS011;56677;51.710;5.366;2024-02-04T10:50:49;2.97;;;1.27;;
69485;SDS011;56677;51.710;5.366;2024-02-04T10:53:16;4.25;;;1.38;;
69485;SDS011;56677;51.710;5.366;2024-02-04T10:55:42;3.75;;;1.40;;
69485;SDS011;56677;51.710;5.366;2024-02-04T10:58:08;4.00;;;1.27;;
69485;SDS011;56677;51.710;5.366;2024-02-04T11:00:33;3.03;;;1.47;;
69485;SDS011;56677;51.710;5.366;2024-02-04T11:02:59;2.17;;;1.30;;
69485;SDS011;56677;51.710;5.366;2024-02-04T11:05:25;4.47;;;1.27;;
69485;SDS011;56677;51.710;5.366;2024-02-04T11:07:51;7.85;;;1.50;;
69485;SDS011;56677;51.710;5.366;2024-02-04T11:10:16;4.07;;;1.33;;
69485;SDS011;56677;51.710;5.366;2024-02-04T11:12:41;6.53;;;1.10;;
69485;SDS011;56677;51.710;5.366;2024-02-04T11:15:07;2.07;;;1.40;;
69485;SDS011;56677;51.710;5.366;2024-02-04T11:17:43;3.42;;;1.30;;
69485;SDS011;56677;51.710;5.366;2024-02-04T11:25:38;4.53;;;1.53;;
69485;SDS011;56677;51.710;5.366;2024-02-04T11:28:07;3.00;;;1.45;;
69485;SDS011;56677;51.710;5.366;2024-02-04T11:30:35;3.28;;;1.50;;
69485;SDS011;56677;51.710;5.366;2024-02-04T11:33:00;3.65;;;1.20;;
69485;SDS011;56677;51.710;5.366;2024-02-04T11:35:25;2.70;;;1.27;;
69485;SDS011;56677;51.710;5.366;2024-02-04T11:37:51;2.87;;;1.20;;
69485;SDS011;56677;51.710;5.366;2024-02-04T11:40:18;4.93;;;1.20;;
69485;SDS011;56677;51.710;5.366;2024-02-04T11:42:45;3.78;;;1.58;;
69485;SDS011;56677;51.710;5.366;2024-02-04T11:45:11;4.23;;;1.20;;
69485;SDS011;56677;51.710;5.366;2024-02-04T11:47:37;3.63;;;1.53;;
69485;SDS011;56677;51.710;5.366;2024-02-04T11:50:02;3.73;;;1.47;;
69485;SDS011;56677;51.710;5.366;2024-02-04T11:52:27;5.17;;;1.67;;
69485;SDS011;56677;51.710;5.366;2024-02-04T11:54:53;2.67;;;1.30;;
69485;SDS011;56677;51.710;5.366;2024-02-04T11:57:18;3.67;;;1.47;;
69485;SDS011;56677;51.710;5.366;2024-02-04T11:59:43;4.95;;;2.20;;
69485;SDS011;56677;51.710;5.366;2024-02-04T12:02:08;4.13;;;1.27;;
69485;SDS011;56677;51.710;5.366;2024-02-04T12:04:33;5.23;;;1.60;;
69485;SDS011;56677;51.710;5.366;2024-02-04T12:06:59;5.67;;;1.50;;
69485;SDS011;56677;51.710;5.366;2024-02-04T12:09:24;2.75;;;1.30;;
69485;SDS011;56677;51.710;5.366;2024-02-04T12:11:51;7.68;;;1.50;;
69485;SDS011;56677;51.710;5.366;2024-02-04T12:14:16;5.10;;;1.33;;
69485;SDS011;56677;51.710;5.366;2024-02-04T12:16:42;3.03;;;1.20;;
69485;SDS011;56677;51.710;5.366;2024-02-04T12:19:07;4.50;;;1.38;;
69485;SDS011;56677;51.710;5.366;2024-02-04T12:21:33;4.70;;;1.63;;
69485;SDS011;56677;51.710;5.366;2024-02-04T12:23:58;6.87;;;1.57;;
69485;SDS011;56677;51.710;5.366;2024-02-04T12:26:24;4.78;;;1.35;;
69485;SDS011;56677;51.710;5.366;2024-02-04T12:28:49;4.82;;;1.55;;
69485;SDS011;56677;51.710;5.366;2024-02-04T12:31:18;4.37;;;1.17;;
69485;SDS011;56677;51.710;5.366;2024-02-04T12:33:43;4.90;;;1.10;;
69485;SDS011;56677;51.710;5.366;2024-02-04T12:36:14;4.85;;;1.65;;
69485;SDS011;56677;51.710;5.366;2024-02-04T12:38:40;3.57;;;1.37;;
69485;SDS011;56677;51.710;5.366;2024-02-04T12:41:05;4.03;;;1.42;;
69485;SDS011;56677;51.710;5.366;2024-02-04T12:43:30;3.88;;;1.65;;
69485;SDS011;56677;51.710;5.366;2024-02-04T12:45:56;2.88;;;1.50;;
69485;SDS011;56677;51.710;5.366;2024-02-04T12:48:21;3.03;;;1.20;;
69485;SDS011;56677;51.710;5.366;2024-02-04T12:50:46;6.35;;;1.60;;
69485;SDS011;56677;51.710;5.366;2024-02-04T12:53:11;7.07;;;1.60;;
69485;SDS011;56677;51.710;5.366;2024-02-04T12:55:37;3.70;;;1.50;;
69485;SDS011;56677;51.710;5.366;2024-02-04T12:58:20;5.18;;;1.60;;
69485;SDS011;56677;51.710;5.366;2024-02-04T13:00:45;5.37;;;1.70;;
69485;SDS011;56677;51.710;5.366;2024-02-04T13:03:10;2.85;;;1.02;;
69485;SDS011;56677;51.710;5.366;2024-02-04T13:05:35;4.20;;;1.33;;
69485;SDS011;56677;51.710;5.366;2024-02-04T13:08:01;3.33;;;1.50;;
69485;SDS011;56677;51.710;5.366;2024-02-04T13:10:27;3.03;;;1.75;;
69485;SDS011;56677;51.710;5.366;2024-02-04T13:15:27;4.65;;;1.55;;
69485;SDS011;56677;51.710;5.366;2024-02-04T13:17:52;3.42;;;1.30;;
69485;SDS011;56677;51.710;5.366;2024-02-04T13:20:18;3.83;;;1.17;;
69485;SDS011;56677;51.710;5.366;2024-02-04T13:22:43;2.33;;;1.35;;
69485;SDS011;56677;51.710;5.366;2024-02-04T13:25:08;5.17;;;1.57;;
69485;SDS011;56677;51.710;5.366;2024-02-04T13:27:33;3.78;;;1.35;;
69485;SDS011;56677;51.710;5.366;2024-02-04T13:29:58;2.97;;;1.20;;
69485;SDS011;56677;51.710;5.366;2024-02-04T13:32:23;2.75;;;1.40;;
69485;SDS011;56677;51.710;5.366;2024-02-04T13:34:48;3.10;;;1.50;;
69485;SDS011;56677;51.710;5.366;2024-02-04T13:37:14;3.30;;;1.33;;
69485;SDS011;56677;51.710;5.366;2024-02-04T13:39:39;2.25;;;1.23;;
69485;SDS011;56677;51.710;5.366;2024-02-04T13:42:04;3.50;;;1.30;;
69485;SDS011;56677;51.710;5.366;2024-02-04T13:44:29;3.80;;;1.03;;
69485;SDS011;56677;51.710;5.366;2024-02-04T13:46:54;4.53;;;1.50;;
69485;SDS011;56677;51.710;5.366;2024-02-04T13:49:19;5.68;;;1.40;;
69485;SDS011;56677;51.710;5.366;2024-02-04T13:51:44;3.08;;;0.93;;
69485;SDS011;56677;51.710;5.366;2024-02-04T13:54:09;6.20;;;1.20;;
69485;SDS011;56677;51.710;5.366;2024-02-04T13:56:35;2.95;;;1.10;;
69485;SDS011;56677;51.710;5.366;2024-02-04T13:59:00;3.40;;;1.17;;
69485;SDS011;56677;51.710;5.366;2024-02-04T14:01:25;2.53;;;1.20;;
69485;SDS011;56677;51.710;5.366;2024-02-04T14:03:50;4.25;;;1.40;;
69485;SDS011;56677;51.710;5.366;2024-02-04T14:06:15;5.33;;;1.23;;
69485;SDS011;56677;51.710;5.366;2024-02-04T14:08:41;3.63;;;1.50;;
69485;SDS011;56677;51.710;5.366;2024-02-04T14:11:06;9.43;;;1.13;;
69485;SDS011;56677;51.710;5.366;2024-02-04T14:13:31;3.37;;;1.30;;
69485;SDS011;56677;51.710;5.366;2024-02-04T14:15:56;4.80;;;1.47;;
69485;SDS011;56677;51.710;5.366;2024-02-04T14:18:21;2.20;;;1.10;;
69485;SDS011;56677;51.710;5.366;2024-02-04T14:20:51;2.77;;;1.53;;
69485;SDS011;56677;51.710;5.366;2024-02-04T14:23:16;3.23;;;1.40;;
69485;SDS011;56677;51.710;5.366;2024-02-04T14:25:41;4.90;;;1.23;;
69485;SDS011;56677;51.710;5.366;2024-02-04T14:28:07;4.67;;;1.10;;
69485;SDS011;56677;51.710;5.366;2024-02-04T14:30:32;6.60;;;1.00;;
69485;SDS011;56677;51.710;5.366;2024-02-04T14:32:57;6.35;;;1.20;;
69485;SDS011;56677;51.710;5.366;2024-02-04T14:35:22;5.63;;;1.30;;
69485;SDS011;56677;51.710;5.366;2024-02-04T14:37:47;5.32;;;1.17;;
69485;SDS011;56677;51.710;5.366;2024-02-04T14:40:13;8.85;;;1.20;;
69485;SDS011;56677;51.710;5.366;2024-02-04T14:42:38;4.50;;;1.30;;
69485;SDS011;56677;51.710;5.366;2024-02-04T14:45:03;7.05;;;1.63;;
69485;SDS011;56677;51.710;5.366;2024-02-04T14:47:28;5.27;;;1.20;;
69485;SDS011;56677;51.710;5.366;2024-02-04T14:49:54;8.63;;;1.70;;
69485;SDS011;56677;51.710;5.366;2024-02-04T14:52:20;3.05;;;1.10;;
69485;SDS011;56677;51.710;5.366;2024-02-04T14:54:45;3.22;;;1.27;;
69485;SDS011;56677;51.710;5.366;2024-02-04T14:57:10;6.47;;;1.53;;
69485;SDS011;56677;51.710;5.366;2024-02-04T14:59:35;9.77;;;1.42;;
69485;SDS011;56677;51.710;5.366;2024-02-04T15:02:01;5.93;;;1.60;;
69485;SDS011;56677;51.710;5.366;2024-02-04T15:04:26;5.65;;;1.35;;
69485;SDS011;56677;51.710;5.366;2024-02-04T15:06:51;6.90;;;1.40;;
69485;SDS011;56677;51.710;5.366;2024-02-04T15:09:16;6.40;;;1.60;;
69485;SDS011;56677;51.710;5.366;2024-02-04T15:11:41;4.80;;;1.30;;
69485;SDS011;56677;51.710;5.366;2024-02-04T15:14:07;5.67;;;1.43;;
69485;SDS011;56677;51.710;5.366;2024-02-04T15:16:32;4.83;;;1.50;;
69485;SDS011;56677;51.710;5.366;2024-02-04T15:18:57;3.90;;;1.27;;
69485;SDS011;56677;51.710;5.366;2024-02-04T15:21:22;4.33;;;1.40;;
69485;SDS011;56677;51.710;5.366;2024-02-04T15:23:48;12.23;;;1.70;;
69485;SDS011;56677;51.710;5.366;2024-02-04T15:26:14;10.40;;;1.40;;
69485;SDS011;56677;51.710;5.366;2024-02-04T15:28:39;13.02;;;1.33;;
69485;SDS011;56677;51.710;5.366;2024-02-04T15:31:05;12.50;;;1.60;;
69485;SDS011;56677;51.710;5.366;2024-02-04T15:33:31;6.10;;;1.20;;
69485;SDS011;56677;51.710;5.366;2024-02-04T15:35:56;3.35;;;1.20;;
69485;SDS011;56677;51.710;5.366;2024-02-04T15:38:21;4.20;;;1.40;;
69485;SDS011;56677;51.710;5.366;2024-02-04T15:40:46;8.53;;;1.73;;
69485;SDS011;56677;51.710;5.366;2024-02-04T15:43:12;5.25;;;1.50;;
69485;SDS011;56677;51.710;5.366;2024-02-04T15:45:37;4.75;;;1.20;;
69485;SDS011;56677;51.710;5.366;2024-02-04T15:48:03;7.13;;;1.10;;
69485;SDS011;56677;51.710;5.366;2024-02-04T15:50:28;10.70;;;1.50;;
69485;SDS011;56677;51.710;5.366;2024-02-04T15:52:53;8.60;;;1.80;;
69485;SDS011;56677;51.710;5.366;2024-02-04T15:55:18;8.97;;;1.53;;
69485;SDS011;56677;51.710;5.366;2024-02-04T15:57:44;6.20;;;1.40;;
69485;SDS011;56677;51.710;5.366;2024-02-04T16:00:12;4.23;;;1.40;;
69485;SDS011;56677;51.710;5.366;2024-02-04T16:02:37;8.88;;;2.15;;
69485;SDS011;56677;51.710;5.366;2024-02-04T16:05:02;4.17;;;1.30;;
69485;SDS011;56677;51.710;5.366;2024-02-04T16:07:28;7.17;;;1.60;;
69485;SDS011;56677;51.710;5.366;2024-02-04T16:09:53;9.27;;;1.77;;
69485;SDS011;56677;51.710;5.366;2024-02-04T16:12:19;9.43;;;1.53;;
69485;SDS011;56677;51.710;5.366;2024-02-04T16:14:44;5.97;;;1.70;;
69485;SDS011;56677;51.710;5.366;2024-02-04T16:17:16;7.03;;;1.50;;
69485;SDS011;56677;51.710;5.366;2024-02-04T16:19:42;6.45;;;1.55;;
69485;SDS011;56677;51.710;5.366;2024-02-04T16:22:08;8.77;;;1.27;;
69485;SDS011;56677;51.710;5.366;2024-02-04T16:24:33;7.72;;;1.48;;
69485;SDS011;56677;51.710;5.366;2024-02-04T16:26:58;6.40;;;1.70;;
69485;SDS011;56677;51.710;5.366;2024-02-04T16:29:23;6.90;;;1.33;;
69485;SDS011;56677;51.710;5.366;2024-02-04T16:31:48;6.20;;;1.60;;
69485;SDS011;56677;51.710;5.366;2024-02-04T16:34:13;8.60;;;1.73;;
69485;SDS011;56677;51.710;5.366;2024-02-04T16:36:38;4.50;;;1.20;;
69485;SDS011;56677;51.710;5.366;2024-02-04T16:39:04;5.27;;;1.53;;
69485;SDS011;56677;51.710;5.366;2024-02-04T16:41:29;3.83;;;1.80;;
69485;SDS011;56677;51.710;5.366;2024-02-04T16:43:54;5.03;;;1.85;;
69485;SDS011;56677;51.710;5.366;2024-02-04T16:46:19;9.45;;;2.28;;
69485;SDS011;56677;51.710;5.366;2024-02-04T16:48:44;6.82;;;2.30;;
69485;SDS011;56677;51.710;5.366;2024-02-04T16:51:09;3.45;;;1.63;;
69485;SDS011;56677;51.710;5.366;2024-02-04T16:53:35;3.30;;;1.47;;
69485;SDS011;56677;51.710;5.366;2024-02-04T16:56:01;8.60;;;1.95;;
69485;SDS011;56677;51.710;5.366;2024-02-04T16:58:26;6.25;;;1.63;;
69485;SDS011;56677;51.710;5.366;2024-02-04T17:00:51;5.63;;;1.70;;
69485;SDS011;56677;51.710;5.366;2024-02-04T17:03:16;4.50;;;1.40;;
69485;SDS011;56677;51.710;5.366;2024-02-04T17:05:41;5.03;;;1.70;;
69485;SDS011;56677;51.710;5.366;2024-02-04T17:08:07;6.03;;;2.10;;
69485;SDS011;56677;51.710;5.366;2024-02-04T17:10:32;7.00;;;1.67;;
69485;SDS011;56677;51.710;5.366;2024-02-04T17:12:57;2.53;;;1.40;;
69485;SDS011;56677;51.710;5.366;2024-02-04T17:15:22;6.97;;;1.53;;
69485;SDS011;56677;51.710;5.366;2024-02-04T17:17:50;7.33;;;1.83;;
69485;SDS011;56677;51.710;5.366;2024-02-04T17:20:19;4.22;;;1.63;;
69485;SDS011;56677;51.710;5.366;2024-02-04T17:22:48;5.20;;;1.98;;
69485;SDS011;56677;51.710;5.366;2024-02-04T17:25:14;10.13;;;1.97;;
69485;SDS011;56677;51.710;5.366;2024-02-04T17:27:40;3.37;;;1.40;;
69485;SDS011;56677;51.710;5.366;2024-02-04T17:30:05;6.47;;;1.60;;
69485;SDS011;56677;51.710;5.366;2024-02-04T17:32:31;6.97;;;1.90;;
69485;SDS011;56677;51.710;5.366;2024-02-04T17:34:56;6.10;;;1.50;;
69485;SDS011;56677;51.710;5.366;2024-02-04T17:37:21;4.97;;;1.95;;
69485;SDS011;56677;51.710;5.366;2024-02-04T17:39:46;7.03;;;1.93;;
69485;SDS011;56677;51.710;5.366;2024-02-04T17:42:11;4.25;;;1.73;;
69485;SDS011;56677;51.710;5.366;2024-02-04T17:44:37;3.87;;;1.67;;
69485;SDS011;56677;51.710;5.366;2024-02-04T17:47:02;6.13;;;1.50;;
69485;SDS011;56677;51.710;5.366;2024-02-04T17:49:27;7.43;;;1.70;;
69485;SDS011;56677;51.710;5.366;2024-02-04T17:51:52;6.35;;;1.17;;
69485;SDS011;56677;51.710;5.366;2024-02-04T17:54:17;5.90;;;1.90;;
69485;SDS011;56677;51.710;5.366;2024-02-04T17:56:42;6.15;;;1.60;;
69485;SDS011;56677;51.710;5.366;2024-02-04T17:59:07;5.45;;;1.80;;
69485;SDS011;56677;51.710;5.366;2024-02-04T18:01:33;6.45;;;2.28;;
69485;SDS011;56677;51.710;5.366;2024-02-04T18:03:58;4.57;;;1.67;;
69485;SDS011;56677;51.710;5.366;2024-02-04T18:06:23;4.28;;;1.60;;
69485;SDS011;56677;51.710;5.366;2024-02-04T18:08:48;4.35;;;1.70;;
69485;SDS011;56677;51.710;5.366;2024-02-04T18:11:20;4.30;;;1.73;;
69485;SDS011;56677;51.710;5.366;2024-02-04T18:13:45;5.88;;;2.00;;
69485;SDS011;56677;51.710;5.366;2024-02-04T18:16:11;6.07;;;2.10;;
69485;SDS011;56677;51.710;5.366;2024-02-04T18:18:36;4.30;;;1.90;;
69485;SDS011;56677;51.710;5.366;2024-02-04T18:21:01;5.90;;;1.67;;
69485;SDS011;56677;51.710;5.366;2024-02-04T18:23:26;5.18;;;1.90;;
69485;SDS011;56677;51.710;5.366;2024-02-04T18:25:51;6.75;;;1.70;;
69485;SDS011;56677;51.710;5.366;2024-02-04T18:28:16;3.33;;;1.50;;
69485;SDS011;56677;51.710;5.366;2024-02-04T18:30:42;5.18;;;2.22;;
69485;SDS011;56677;51.710;5.366;2024-02-04T18:33:07;4.82;;;1.75;;
69485;SDS011;56677;51.710;5.366;2024-02-04T18:35:32;6.00;;;2.10;;
69485;SDS011;56677;51.710;5.366;2024-02-04T18:37:57;4.60;;;2.20;;
69485;SDS011;56677;51.710;5.366;2024-02-04T18:40:22;5.23;;;2.03;;
69485;SDS011;56677;51.710;5.366;2024-02-04T18:42:47;5.43;;;2.03;;
69485;SDS011;56677;51.710;5.366;2024-02-04T18:45:12;3.93;;;2.13;;
69485;SDS011;56677;51.710;5.366;2024-02-04T18:47:37;4.03;;;1.53;;
69485;SDS011;56677;51.710;5.366;2024-02-04T18:50:03;4.88;;;1.63;;
69485;SDS011;56677;51.710;5.366;2024-02-04T18:52:28;5.70;;;2.30;;
69485;SDS011;56677;51.710;5.366;2024-02-04T18:54:53;4.65;;;2.35;;
69485;SDS011;56677;51.710;5.366;2024-02-04T18:57:18;5.25;;;1.80;;
69485;SDS011;56677;51.710;5.366;2024-02-04T18:59:44;7.47;;;2.47;;
69485;SDS011;56677;51.710;5.366;2024-02-04T19:02:09;4.60;;;1.80;;
69485;SDS011;56677;51.710;5.366;2024-02-04T19:04:34;7.83;;;2.07;;
69485;SDS011;56677;51.710;5.366;2024-02-04T19:06:59;3.83;;;1.92;;
69485;SDS011;56677;51.710;5.366;2024-02-04T19:09:24;4.25;;;1.88;;
69485;SDS011;56677;51.710;5.366;2024-02-04T19:11:49;5.78;;;2.00;;
69485;SDS011;56677;51.710;5.366;2024-02-04T19:14:14;5.28;;;1.73;;
69485;SDS011;56677;51.710;5.366;2024-02-04T19:16:39;4.07;;;1.70;;
69485;SDS011;56677;51.710;5.366;2024-02-04T19:19:05;5.45;;;2.20;;
69485;SDS011;56677;51.710;5.366;2024-02-04T19:21:30;5.65;;;2.10;;
69485;SDS011;56677;51.710;5.366;2024-02-04T19:23:55;5.63;;;2.17;;
69485;SDS011;56677;51.710;5.366;2024-02-04T19:26:26;5.15;;;1.67;;
69485;SDS011;56677;51.710;5.366;2024-02-04T19:28:52;4.07;;;1.75;;
69485;SDS011;56677;51.710;5.366;2024-02-04T19:31:17;3.80;;;1.70;;
69485;SDS011;56677;51.710;5.366;2024-02-04T19:33:42;3.83;;;1.80;;
69485;SDS011;56677;51.710;5.366;2024-02-04T19:36:07;4.50;;;1.70;;
69485;SDS011;56677;51.710;5.366;2024-02-04T19:38:32;6.03;;;1.70;;
69485;SDS011;56677;51.710;5.366;2024-02-04T19:40:57;3.97;;;1.90;;
69485;SDS011;56677;51.710;5.366;2024-02-04T19:43:22;6.43;;;1.90;;
69485;SDS011;56677;51.710;5.366;2024-02-04T19:45:48;4.03;;;1.85;;
69485;SDS011;56677;51.710;5.366;2024-02-04T19:48:13;7.35;;;2.00;;
69485;SDS011;56677;51.710;5.366;2024-02-04T19:50:38;6.32;;;1.80;;
69485;SDS011;56677;51.710;5.366;2024-02-04T19:53:03;5.83;;;2.40;;
69485;SDS011;56677;51.710;5.366;2024-02-04T19:55:28;5.20;;;1.67;;
69485;SDS011;56677;51.710;5.366;2024-02-04T19:57:53;4.88;;;1.60;;
69485;SDS011;56677;51.710;5.366;2024-02-04T20:00:19;4.90;;;1.83;;
69485;SDS011;56677;51.710;5.366;2024-02-04T20:02:44;5.63;;;1.97;;
69485;SDS011;56677;51.710;5.366;2024-02-04T20:05:09;4.50;;;1.67;;
69485;SDS011;56677;51.710;5.366;2024-02-04T20:07:34;4.97;;;1.88;;
69485;SDS011;56677;51.710;5.366;2024-02-04T20:09:59;4.57;;;2.00;;
69485;SDS011;56677;51.710;5.366;2024-02-04T20:12:24;4.78;;;1.80;;
69485;SDS011;56677;51.710;5.366;2024-02-04T20:14:49;5.40;;;1.80;;
69485;SDS011;56677;51.710;5.366;2024-02-04T20:17:14;3.85;;;1.92;;
69485;SDS011;56677;51.710;5.366;2024-02-04T20:19:40;5.85;;;2.00;;
69485;SDS011;56677;51.710;5.366;2024-02-04T20:22:05;5.55;;;2.10;;
69485;SDS011;56677;51.710;5.366;2024-02-04T20:24:30;5.07;;;1.90;;
69485;SDS011;56677;51.710;5.366;2024-02-04T20:26:55;5.90;;;2.15;;
69485;SDS011;56677;51.710;5.366;2024-02-04T20:29:20;4.22;;;1.98;;
69485;SDS011;56677;51.710;5.366;2024-02-04T20:31:45;7.47;;;1.77;;
69485;SDS011;56677;51.710;5.366;2024-02-04T20:34:10;4.40;;;1.90;;
69485;SDS011;56677;51.710;5.366;2024-02-04T20:36:36;6.18;;;1.73;;
69485;SDS011;56677;51.710;5.366;2024-02-04T20:39:01;4.23;;;1.60;;
69485;SDS011;56677;51.710;5.366;2024-02-04T20:41:26;4.95;;;1.88;;
69485;SDS011;56677;51.710;5.366;2024-02-04T20:43:51;3.40;;;1.63;;
69485;SDS011;56677;51.710;5.366;2024-02-04T20:46:16;6.18;;;1.80;;
69485;SDS011;56677;51.710;5.366;2024-02-04T20:48:41;7.18;;;2.35;;
69485;SDS011;56677;51.710;5.366;2024-02-04T20:51:06;4.15;;;1.75;;
69485;SDS011;56677;51.710;5.366;2024-02-04T20:53:31;4.05;;;1.70;;